Time;durP1;ratioP1;P1;durP2;ratioP2;P2;SDS_P1;SDS_P2;PMS_P1;PMS_P2;Temp;Humidity;BMP_temperature;BMP_pressure;BME280_temperature;BME280_humidity;BME280_pressure;Samples;Min_cycle;Max_cycle;Signal;HPM_P1;HPM_P2
2022/06/20 00:00:35;;;;;;;;;;;25.20;61.80;;;24.60;58.58;95247.16;5016189;28;20040;-64
2022/06/20 00:03:00;;;;;;;;;;;25.10;61.40;;;24.61;59.27;95253.34;4986658;28;20404;-65
2022/06/20 00:05:34;;;;;;;;;;;25.10;61.70;;;24.54;58.78;95252.94;4991974;28;19922;-64
2022/06/20 00:08:00;;;;;;;;;;;25.10;61.60;;;24.48;58.93;95249.56;5022276;28;19964;-65
2022/06/20 00:10:28;;;;;;;;;;;25.00;61.80;;;24.39;59.49;95252.13;5015342;28;20308;-65
2022/06/20 00:12:53;;;;;;;;;;;24.90;61.80;;;24.38;58.95;95250.53;5013988;28;19924;-65
2022/06/20 00:15:29;;;;;;;;;;;25.00;61.80;;;24.37;58.54;95251.63;5006890;28;20403;-65
2022/06/20 00:17:55;;;;;;;;;;;25.00;61.50;;;24.32;58.34;95240.97;5017060;28;20434;-64
2022/06/20 00:20:21;;;;;;;;;;;24.90;61.50;;;24.31;59.06;95244.75;5027722;28;19921;-64
2022/06/20 00:22:47;;;;;;;;;;;24.90;61.40;;;24.31;59.43;95247.44;5001213;28;19923;-64
2022/06/20 00:25:12;;;;;;;;;;;24.90;61.40;;;24.29;58.87;95236.19;5008445;28;19921;-64
2022/06/20 00:27:38;;;;;;;;;;;24.90;61.40;;;24.28;59.62;95242.66;5019674;28;20438;-64
2022/06/20 00:30:04;;;;;;;;;;;24.90;61.50;;;24.29;59.65;95243.44;5012587;28;19987;-65
2022/06/20 00:32:30;;;;;;;;;;;24.90;61.80;;;24.28;60.19;95233.78;5006827;28;20004;-64
2022/06/20 00:34:55;;;;;;;;;;;24.90;61.90;;;24.28;60.51;95241.84;4995921;28;19921;-64
2022/06/20 00:37:21;;;;;;;;;;;24.90;62.10;;;24.27;60.70;95249.09;5030607;28;19921;-64
2022/06/20 00:39:48;;;;;;;;;;;24.90;62.40;;;24.26;59.70;95247.50;5024284;28;19918;-65
2022/06/20 00:42:13;;;;;;;;;;;24.90;62.30;;;24.26;59.85;95244.81;5026691;28;19916;-64
2022/06/20 00:44:45;;;;;;;;;;;24.90;62.00;;;24.25;60.50;95245.91;4995536;28;19921;-64
2022/06/20 00:47:13;;;;;;;;;;;24.90;62.70;;;24.23;60.75;95241.94;5038873;28;20408;-65
2022/06/20 00:49:58;;;;;;;;;;;24.90;63.00;;;24.20;61.64;95247.88;5008414;28;19918;-64
2022/06/20 00:52:41;;;;;;;;;;;24.80;63.70;;;24.17;61.07;95243.09;5006931;28;19924;-64
2022/06/20 00:55:13;;;;;;;;;;;24.90;62.70;;;24.13;61.02;95240.19;5011914;28;20384;-64
2022/06/20 00:57:42;;;;;;;;;;;24.80;63.00;;;24.10;60.91;95232.72;5010455;28;20011;-64
2022/06/20 01:00:11;;;;;;;;;;;24.80;63.00;;;24.08;61.30;95240.28;5014186;28;20399;-64
2022/06/20 01:02:38;;;;;;;;;;;24.80;63.40;;;24.04;62.08;95239.28;5039147;28;19916;-64
2022/06/20 01:05:07;;;;;;;;;;;24.70;64.50;;;24.00;62.99;95247.16;5024590;28;19918;-64
2022/06/20 01:07:45;;;;;;;;;;;24.60;64.70;;;23.98;62.41;95251.19;4995004;28;19922;-64
2022/06/20 01:10:12;;;;;;;;;;;24.60;64.50;;;23.93;62.49;95248.59;5013325;28;19983;-64
2022/06/20 01:12:55;;;;;;;;;;;24.60;64.30;;;23.88;62.33;95249.47;5018240;28;19916;-64
2022/06/20 01:15:25;;;;;;;;;;;24.50;64.60;;;23.85;62.98;95246.59;5016493;28;19920;-64
2022/06/20 01:17:51;;;;;;;;;;;24.40;65.10;;;23.79;63.01;95248.56;5007729;28;19918;-65
2022/06/20 01:20:24;;;;;;;;;;;24.40;65.30;;;23.73;62.98;95253.19;5002629;28;19916;-64
2022/06/20 01:22:56;;;;;;;;;;;24.40;65.10;;;23.69;63.68;95249.50;5028687;28;19940;-64
2022/06/20 01:25:55;;;;;;;;;;;24.30;65.40;;;23.66;63.61;95249.28;5011318;28;19917;-64
2022/06/20 01:28:23;;;;;;;;;;;24.30;65.50;;;23.57;63.56;95245.69;5019363;28;19964;-64
2022/06/20 01:30:49;;;;;;;;;;;24.20;66.00;;;23.52;64.04;95252.69;5002500;28;19917;-64
2022/06/20 01:33:17;;;;;;;;;;;24.10;66.00;;;23.46;63.88;95251.16;5001358;28;19923;-64
2022/06/20 01:38:27;;;;;;;;;;;24.00;66.20;;;23.32;64.13;95244.16;5028585;28;19928;-64
2022/06/20 01:43:37;;;;;;;;;;;23.90;65.80;;;23.24;63.25;95250.94;5019409;28;19967;-64
2022/06/20 01:46:09;;;;;;;;;;;23.80;65.80;;;23.18;63.65;95244.84;5035376;28;19922;-65
2022/06/20 01:48:35;;;;;;;;;;;23.80;66.00;;;23.12;62.49;95245.22;4999861;28;19921;-64
2022/06/20 01:51:01;;;;;;;;;;;23.70;65.90;;;23.04;63.42;95241.28;5032140;28;19922;-65
2022/06/20 01:53:29;;;;;;;;;;;23.60;66.30;;;23.00;64.05;95242.94;5015182;28;19924;-64
2022/06/20 01:55:54;;;;;;;;;;;23.60;66.30;;;22.98;64.28;95247.81;5002040;28;19921;-64
2022/06/20 01:58:30;;;;;;;;;;;23.60;66.60;;;22.98;64.88;95255.03;4998963;28;19917;-64
2022/06/20 02:00:57;;;;;;;;;;;23.70;66.70;;;22.93;64.98;95253.22;5030980;28;19922;-64
2022/06/20 02:03:23;;;;;;;;;;;23.60;66.80;;;22.90;65.45;95243.09;5001357;28;19966;-64
2022/06/20 02:05:52;;;;;;;;;;;23.60;67.00;;;22.87;65.82;95240.97;5014902;28;19921;-64
2022/06/20 02:08:18;;;;;;;;;;;23.50;67.20;;;22.83;65.21;95254.13;5030422;28;19975;-64
2022/06/20 02:10:56;;;;;;;;;;;23.50;67.30;;;22.81;65.35;95244.75;5009445;28;20315;-64
2022/06/20 02:13:23;;;;;;;;;;;23.50;67.40;;;22.78;65.15;95248.00;5030137;28;20376;-64
2022/06/20 02:15:49;;;;;;;;;;;23.50;67.40;;;22.75;65.99;95253.97;5015506;28;19924;-64
2022/06/20 02:18:15;;;;;;;;;;;23.50;67.70;;;22.73;65.60;95258.81;5018518;28;19924;-64
2022/06/20 02:20:46;;;;;;;;;;;23.30;67.70;;;22.67;66.12;95257.28;5012817;28;19932;-64
2022/06/20 02:23:23;;;;;;;;;;;23.30;67.90;;;22.61;66.71;95256.50;5015420;28;19920;-64
2022/06/20 02:25:49;;;;;;;;;;;23.30;68.30;;;22.57;66.11;95256.28;4999570;28;19934;-64
2022/06/20 02:28:18;;;;;;;;;;;23.20;68.10;;;22.56;66.36;95254.69;5009654;28;20284;-64
2022/06/20 02:30:44;;;;;;;;;;;23.20;68.40;;;22.50;66.56;95253.16;5004224;28;19921;-64
2022/06/20 02:33:12;;;;;;;;;;;23.20;68.20;;;22.48;66.50;95263.38;5025047;28;19971;-64
2022/06/20 02:35:38;;;;;;;;;;;23.10;68.40;;;22.45;66.31;95263.13;5017573;28;19921;-64
2022/06/20 02:38:04;;;;;;;;;;;23.10;68.50;;;22.43;66.60;95268.78;5033235;28;19940;-64
2022/06/20 02:40:30;;;;;;;;;;;23.10;68.60;;;22.37;66.09;95272.56;5032263;28;19932;-64
2022/06/20 02:42:56;;;;;;;;;;;23.00;68.30;;;22.33;66.04;95271.56;5014654;28;19928;-65
2022/06/20 02:45:22;;;;;;;;;;;22.90;68.30;;;22.28;66.27;95255.53;5017808;28;20277;-64
2022/06/20 02:47:49;;;;;;;;;;;22.90;68.00;;;22.27;65.69;95251.25;5006119;28;19939;-64
2022/06/20 02:50:17;;;;;;;;;;;22.90;67.70;;;22.26;64.90;95253.13;5026345;28;20045;-64
2022/06/20 02:52:48;;;;;;;;;;;22.90;67.20;;;22.23;65.55;95255.59;5000554;28;19924;-64
2022/06/20 02:55:14;;;;;;;;;;;22.90;67.30;;;22.21;65.77;95257.75;5000510;28;19968;-64
2022/06/20 02:57:44;;;;;;;;;;;23.00;66.90;;;22.20;65.60;95253.47;5018604;28;20347;-65
2022/06/20 03:00:16;;;;;;;;;;;22.90;66.80;;;22.18;65.68;95252.94;5030820;28;20360;-64
2022/06/20 03:02:42;;;;;;;;;;;22.90;66.40;;;22.18;64.94;95255.63;5016263;28;20439;-64
2022/06/20 03:05:08;;;;;;;;;;;22.90;66.30;;;22.17;64.49;95248.66;4996166;28;19955;-64
2022/06/20 03:07:37;;;;;;;;;;;22.90;66.00;;;22.17;64.99;95245.97;5033092;28;19925;-63
2022/06/20 03:10:18;;;;;;;;;;;22.90;66.00;;;22.16;63.61;95250.53;5022904;28;19918;-64
2022/06/20 03:12:43;;;;;;;;;;;22.90;65.20;;;22.16;64.57;95244.38;5012279;28;20372;-64
2022/06/20 03:15:09;;;;;;;;;;;22.90;65.50;;;22.16;63.73;95239.03;5000751;28;19917;-64
2022/06/20 03:17:35;;;;;;;;;;;22.90;65.10;;;22.15;62.72;95242.78;4998224;28;19929;-64
2022/06/20 03:20:06;;;;;;;;;;;22.90;64.40;;;22.16;63.48;95247.06;5023326;28;19935;-64
2022/06/20 03:22:34;;;;;;;;;;;22.90;64.60;;;22.14;63.51;95252.72;4999385;28;19952;-64
2022/06/20 03:25:00;;;;;;;;;;;22.90;64.10;;;22.13;64.15;95251.09;5005648;28;19917;-64
2022/06/20 03:27:28;;;;;;;;;;;22.90;64.30;;;22.16;63.33;95255.09;5012923;28;19927;-64
2022/06/20 03:29:55;;;;;;;;;;;23.00;63.80;;;22.16;63.40;95260.44;5031283;28;20014;-64
2022/06/20 03:32:23;;;;;;;;;;;23.00;64.30;;;22.20;62.80;95262.31;5024373;28;19913;-64
2022/06/20 03:34:50;;;;;;;;;;;23.00;63.50;;;22.21;62.56;95255.06;4994773;28;20000;-64
2022/06/20 03:37:15;;;;;;;;;;;23.00;63.40;;;22.24;63.36;95262.53;5000031;28;19925;-64
2022/06/20 03:39:41;;;;;;;;;;;23.10;63.80;;;22.25;63.21;95258.78;5026516;28;20131;-64
2022/06/20 03:42:07;;;;;;;;;;;23.10;63.50;;;22.24;61.08;95257.97;5009448;28;19941;-64
2022/06/20 03:44:35;;;;;;;;;;;23.00;61.70;;;22.27;62.14;95249.38;4991524;28;19929;-64
2022/06/20 03:47:01;;;;;;;;;;;23.10;62.00;;;22.28;61.50;95252.84;5004841;28;19957;-64
2022/06/20 03:49:29;;;;;;;;;;;23.10;61.60;;;22.30;62.06;95262.19;5017170;28;19975;-64
2022/06/20 03:52:04;;;;;;;;;;;23.20;62.30;;;22.34;62.18;95267.78;5014384;28;19940;-64
2022/06/20 03:54:35;;;;;;;;;;;23.30;62.30;;;22.37;61.68;95261.84;5027551;28;20016;-64
2022/06/20 03:57:08;;;;;;;;;;;23.30;61.20;;;22.40;60.98;95272.00;5013792;28;19925;-64
2022/06/20 03:59:38;;;;;;;;;;;23.40;60.60;;;22.45;60.88;95271.97;5019041;28;19943;-64
2022/06/20 04:02:27;;;;;;;;;;;23.40;60.70;;;22.50;60.28;95265.75;5003375;28;19924;-64
2022/06/20 04:05:05;;;;;;;;;;;23.50;60.10;;;22.53;59.83;95267.88;5010884;28;20392;-63
2022/06/20 04:07:43;;;;;;;;;;;23.50;60.10;;;22.51;60.43;95268.16;5027483;28;20372;-63
2022/06/20 04:13:23;;;;;;;;;;;23.50;60.10;;;22.58;60.24;95273.97;4991426;28;19968;-65
2022/06/20 04:15:51;;;;;;;;;;;23.60;60.40;;;22.65;61.31;95286.25;5027156;28;19917;-65
2022/06/20 04:18:42;;;;;;;;;;;23.70;60.60;;;22.72;61.12;95286.69;5017923;28;20287;-65
2022/06/20 04:21:13;;;;;;;;;;;23.80;60.40;;;22.72;60.05;95278.66;5015170;28;20307;-64
2022/06/20 04:23:42;;;;;;;;;;;23.80;59.80;;;22.77;60.33;95292.00;5038624;28;19921;-64
2022/06/20 04:26:27;;;;;;;;;;;23.80;59.60;;;22.80;60.55;95302.16;5003193;28;20410;-64
2022/06/20 04:28:58;;;;;;;;;;;23.80;59.80;;;22.78;60.32;95299.75;5016983;28;19925;-65
2022/06/20 04:31:58;;;;;;;;;;;23.70;59.80;;;22.82;61.09;95300.00;5040421;28;20398;-65
2022/06/20 04:34:34;;;;;;;;;;;23.80;60.20;;;22.82;60.89;95300.81;5028084;28;19921;-66
2022/06/20 04:37:04;;;;;;;;;;;23.80;59.80;;;22.85;60.77;95300.22;5031123;28;19925;-66
2022/06/20 04:39:39;;;;;;;;;;;23.90;59.70;;;22.89;59.83;95316.56;5044186;28;19921;-69
2022/06/20 04:42:21;;;;;;;;;;;23.90;59.50;;;22.89;60.66;95316.56;5029764;28;19914;-64
2022/06/20 04:45:10;;;;;;;;;;;23.90;59.60;;;22.92;60.12;95321.38;5021977;28;19949;-64
2022/06/20 04:47:48;;;;;;;;;;;23.90;59.70;;;22.88;60.47;95313.09;5004860;28;19929;-64
2022/06/20 04:50:19;;;;;;;;;;;24.00;60.00;;;22.95;60.93;95336.09;5028470;28;19918;-65
2022/06/20 04:52:45;;;;;;;;;;;24.00;59.60;;;22.93;60.21;95333.69;4994636;28;19917;-64
2022/06/20 04:55:15;;;;;;;;;;;23.90;60.10;;;22.90;60.95;95329.69;5023861;28;19928;-64
2022/06/20 04:57:41;;;;;;;;;;;23.90;60.00;;;22.93;61.00;95322.97;5015491;28;19929;-64
2022/06/20 05:00:09;;;;;;;;;;;24.00;60.40;;;22.95;61.68;95325.34;4993931;28;20329;-64
2022/06/20 05:02:34;;;;;;;;;;;24.00;60.50;;;22.97;61.68;95339.28;5023130;28;19924;-64
2022/06/20 05:05:00;;;;;;;;;;;24.00;60.70;;;22.95;60.47;95333.41;4995121;28;19925;-64
2022/06/20 05:07:33;;;;;;;;;;;23.90;59.70;;;22.96;60.73;95338.47;4997341;28;19921;-64
2022/06/20 05:10:03;;;;;;;;;;;23.90;59.80;;;22.96;60.34;95343.84;4996125;28;19932;-64
2022/06/20 05:12:49;;;;;;;;;;;23.90;60.30;;;22.97;60.46;95348.13;5018997;28;20454;-64
2022/06/20 05:15:19;;;;;;;;;;;24.00;59.60;;;22.97;60.61;95345.44;5026905;28;20372;-64
2022/06/20 05:17:45;;;;;;;;;;;24.00;59.70;;;22.94;60.55;95361.31;5017136;28;19917;-65
2022/06/20 05:20:21;;;;;;;;;;;23.90;59.60;;;22.93;60.95;95373.91;5028915;28;19939;-64
2022/06/20 05:22:53;;;;;;;;;;;23.90;60.00;;;22.97;60.37;95382.19;5015500;28;19918;-66
2022/06/20 05:25:21;;;;;;;;;;;23.90;59.90;;;22.94;60.49;95380.88;5025731;28;19917;-67
2022/06/20 05:27:50;;;;;;;;;;;23.90;59.50;;;22.92;60.50;95381.16;5022951;28;19921;-65
2022/06/20 05:30:20;;;;;;;;;;;23.90;59.70;;;22.91;60.28;95381.44;5028212;28;19917;-65
2022/06/20 05:32:56;;;;;;;;;;;24.00;59.90;;;22.92;60.34;95380.38;4996053;28;20344;-66
2022/06/20 05:35:24;;;;;;;;;;;24.00;59.70;;;22.93;60.46;95376.59;5025429;28;20010;-65
2022/06/20 05:38:24;;;;;;;;;;;24.00;59.30;;;22.95;61.25;95379.78;4996889;28;19924;-66
2022/06/20 05:40:53;;;;;;;;;;;24.00;60.00;;;22.95;61.34;95379.78;5030358;28;19956;-66
2022/06/20 05:43:22;;;;;;;;;;;24.00;60.20;;;22.95;61.46;95381.69;5011351;28;19917;-65
2022/06/20 05:46:12;;;;;;;;;;;24.10;60.00;;;22.98;60.96;95383.78;5028810;28;19917;-65
2022/06/20 05:48:47;;;;;;;;;;;24.10;59.50;;;23.05;61.32;95394.97;5001182;28;19924;-66
2022/06/20 05:51:13;;;;;;;;;;;24.40;59.80;;;23.13;60.70;95392.47;4996800;28;20013;-64
2022/06/20 05:53:54;;;;;;;;;;;24.50;58.90;;;23.22;60.22;95396.13;5037790;28;20688;-66
2022/06/20 05:56:27;;;;;;;;;;;24.60;58.10;;;23.32;59.93;95397.91;5033125;28;19956;-65
2022/06/20 05:58:53;;;;;;;;;;;24.70;57.70;;;23.39;60.06;95401.03;4994606;28;19916;-66
2022/06/20 06:01:22;;;;;;;;;;;24.90;57.90;;;23.59;60.67;95404.59;4990697;28;20249;-65
2022/06/20 06:03:57;;;;;;;;;;;25.10;57.80;;;23.69;59.09;95409.81;5001183;28;20304;-65
2022/06/20 06:06:25;;;;;;;;;;;25.20;56.30;;;23.88;59.10;95418.69;5006262;28;20031;-66
2022/06/20 06:09:14;;;;;;;;;;;25.60;56.10;;;24.09;59.85;95424.59;4998425;28;19918;-66
2022/06/20 06:11:43;;;;;;;;;;;25.80;56.20;;;24.31;59.75;95421.34;5012040;28;19921;-66
2022/06/20 06:14:23;;;;;;;;;;;26.10;56.00;;;24.48;58.88;95432.38;5004256;28;19921;-66
2022/06/20 06:17:02;;;;;;;;;;;26.10;55.50;;;24.60;57.30;95440.78;5003072;28;19918;-65
2022/06/20 06:19:38;;;;;;;;;;;26.10;54.60;;;24.69;58.41;95438.22;4980474;28;19925;-66
2022/06/20 06:22:11;;;;;;;;;;;26.10;55.30;;;24.78;58.09;95441.03;5019716;28;19920;-66
2022/06/20 06:24:40;;;;;;;;;;;26.20;54.90;;;24.84;58.52;95443.31;5017339;28;20000;-65
2022/06/20 06:27:07;;;;;;;;;;;26.30;55.20;;;24.86;57.13;95446.53;5003382;28;19921;-67
2022/06/20 06:29:41;;;;;;;;;;;26.20;54.00;;;24.91;56.84;95441.06;5025124;28;19929;-67
2022/06/20 06:32:27;;;;;;;;;;;26.30;53.80;;;24.94;56.84;95448.56;5012613;28;20059;-65
2022/06/20 06:34:56;;;;;;;;;;;26.30;53.60;;;24.98;56.58;95452.25;4996966;28;19925;-67
2022/06/20 06:37:26;;;;;;;;;;;26.40;53.20;;;25.04;57.31;95451.09;5004240;28;20023;-66
2022/06/20 06:40:06;;;;;;;;;;;26.60;53.50;;;25.17;57.26;95454.09;5001653;28;19922;-66
2022/06/20 06:42:32;;;;;;;;;;;26.90;52.70;;;25.27;55.20;95453.91;5042170;28;20473;-66
2022/06/20 06:44:58;;;;;;;;;;;27.10;50.90;;;25.42;54.37;95459.03;5025687;28;20288;-67
2022/06/20 06:47:38;;;;;;;;;;;27.40;49.50;;;25.67;53.73;95470.41;5018320;28;19931;-68
2022/06/20 06:50:22;;;;;;;;;;;27.70;48.50;;;25.92;54.24;95459.91;5017399;28;19964;-69
2022/06/20 06:53:03;;;;;;;;;;;28.10;48.80;;;26.12;53.51;95465.97;5020625;28;19917;-65
2022/06/20 06:55:35;;;;;;;;;;;28.10;48.00;;;26.27;52.98;95470.25;5027441;28;19939;-65
2022/06/20 06:58:42;;;;;;;;;;;27.90;48.60;;;26.31;52.03;95469.34;5008439;28;20384;-65
2022/06/20 07:01:14;;;;;;;;;;;27.70;48.50;;;26.33;52.77;95463.63;4925236;28;19996;-70
2022/06/20 07:03:46;;;;;;;;;;;27.70;48.90;;;26.34;52.05;95484.09;5014619;28;20003;-64
2022/06/20 07:06:24;;;;;;;;;;;27.70;48.40;;;26.35;50.54;95483.03;5036321;28;19921;-65
2022/06/20 07:09:05;;;;;;;;;;;28.00;45.80;;;26.41;51.67;95493.41;5020860;28;19917;-65
2022/06/20 07:11:31;;;;;;;;;;;28.30;46.50;;;26.55;51.91;95496.06;5034296;28;19952;-65
2022/06/20 07:14:11;;;;;;;;;;;28.70;46.00;;;26.71;50.50;95493.81;5006202;28;19917;-66
2022/06/20 07:17:18;;;;;;;;;;;29.00;44.20;;;26.95;49.48;95501.59;5001240;28;20376;-65
2022/06/20 07:19:47;;;;;;;;;;;29.30;43.70;;;27.14;50.07;95499.50;4918638;29;19925;-64
2022/06/20 07:22:14;;;;;;;;;;;29.70;43.40;;;27.35;49.00;95506.00;5003598;28;19976;-64
2022/06/20 07:24:40;;;;;;;;;;;29.90;42.40;;;27.58;49.94;95505.94;5000290;28;19921;-65
2022/06/20 07:27:16;;;;;;;;;;;30.20;43.00;;;27.84;48.90;95500.66;5031576;28;19931;-65
2022/06/20 07:30:02;;;;;;;;;;;30.50;41.60;;;28.11;47.33;95499.66;5040551;28;20007;-65
2022/06/20 07:32:40;;;;;;;;;;;30.70;39.70;;;28.42;46.42;95491.44;5026832;28;20003;-65
2022/06/20 07:35:19;;;;;;;;;;;31.10;40.60;;;28.57;45.27;95490.97;5020470;28;19963;-65
2022/06/20 07:37:48;;;;;;;;;;;31.00;38.80;;;28.71;46.08;95490.81;5024707;28;20371;-65
2022/06/20 07:40:23;;;;;;;;;;;31.10;38.90;;;28.85;45.09;95502.28;5017294;28;19917;-65
2022/06/20 07:43:00;;;;;;;;;;;31.30;38.30;;;28.98;44.74;95504.06;5029006;28;19917;-65
2022/06/20 07:45:38;;;;;;;;;;;31.50;37.70;;;29.15;45.55;95509.41;5022260;28;19960;-65
2022/06/20 07:48:12;;;;;;;;;;;31.70;38.20;;;29.42;45.45;95507.44;4997700;28;20396;-65
2022/06/20 07:50:42;;;;;;;;;;;32.10;38.70;;;29.57;44.07;95512.38;5007943;28;19921;-65
2022/06/20 07:53:28;;;;;;;;;;;31.90;37.60;;;29.67;44.41;95511.25;5007774;28;20024;-65
2022/06/20 07:55:57;;;;;;;;;;;31.70;37.60;;;29.67;43.87;95517.47;5015813;28;19925;-67
2022/06/20 07:58:31;;;;;;;;;;;31.40;38.50;;;29.64;44.05;95520.78;5018557;28;19955;-65
2022/06/20 08:00:56;;;;;;;;;;;31.30;38.80;;;29.57;44.69;95525.94;4998146;28;19960;-67
2022/06/20 08:03:43;;;;;;;;;;;31.00;40.00;;;29.49;45.00;95527.56;5029168;28;19923;-66
2022/06/20 08:06:26;;;;;;;;;;;31.00;40.30;;;29.36;44.63;95527.72;5022399;28;20307;-65
2022/06/20 08:09:41;;;;;;;;;;;30.60;40.20;;;29.28;44.79;95532.84;5022915;28;19972;-64
2022/06/20 08:15:59;;;;;;;;;;;30.30;40.60;;;29.05;44.48;95542.28;5031529;28;19931;-67
2022/06/20 08:18:25;;;;;;;;;;;30.30;40.40;;;28.93;45.20;95544.81;5019220;28;19967;-70
2022/06/20 08:21:04;;;;;;;;;;;30.10;41.00;;;28.90;44.96;95548.97;5036570;28;19917;-70
2022/06/20 08:23:44;;;;;;;;;;;30.20;40.30;;;28.85;44.75;95556.41;5027298;28;19926;-67
2022/06/20 08:26:12;;;;;;;;;;;30.10;41.20;;;28.81;44.82;95561.69;5016654;28;20295;-70
2022/06/20 08:28:50;;;;;;;;;;;30.10;41.00;;;28.76;46.07;95563.75;5004107;28;20023;-70
2022/06/20 08:34:46;;;;;;;;;;;30.10;41.40;;;28.77;46.32;95568.84;5015779;28;20397;-69
2022/06/20 08:37:20;;;;;;;;;;;30.30;42.10;;;28.79;45.43;95568.53;5010579;28;19936;-69
2022/06/20 08:39:50;;;;;;;;;;;30.30;41.10;;;28.78;45.12;95566.94;5021769;28;19963;-70
2022/06/20 08:42:25;;;;;;;;;;;30.20;41.50;;;28.78;44.67;95572.34;5011661;28;19932;-71
2022/06/20 08:45:13;;;;;;;;;;;30.20;41.10;;;28.78;44.25;95575.06;5032469;28;19916;-69
2022/06/20 08:47:51;;;;;;;;;;;30.30;40.40;;;28.81;45.06;95575.22;5013060;28;20864;-69
2022/06/20 08:50:46;;;;;;;;;;;30.40;41.10;;;28.82;44.65;95571.38;5010735;28;19932;-65
2022/06/20 08:53:14;;;;;;;;;;;30.40;40.80;;;28.87;45.10;95570.47;5027967;28;19979;-64
2022/06/20 08:56:04;;;;;;;;;;;30.50;41.30;;;28.91;44.45;95566.78;5008859;28;20003;-67
2022/06/20 08:58:52;;;;;;;;;;;30.50;39.40;;;29.01;44.24;95568.41;5018841;28;20316;-67
2022/06/20 09:01:20;;;;;;;;;;;31.00;39.00;;;29.36;44.33;95563.72;5028142;28;19921;-71
2022/06/20 09:03:53;;;;;;;;;;;31.90;38.80;;;29.71;43.19;95567.19;5025418;28;19917;-68
2022/06/20 09:06:47;;;;;;;;;;;32.30;37.30;;;30.16;43.30;95570.22;5036680;28;19979;-68
2022/06/20 09:09:34;;;;;;;;;;;32.90;37.70;;;30.61;41.99;95568.91;5022544;28;19921;-65
2022/06/20 09:14:40;;;;;;;;;;;33.60;35.00;;;31.23;41.01;95565.38;5111405;23;20591;-65
2022/06/20 09:17:15;;;;;;;;;;;33.60;34.60;;;31.56;40.84;95563.47;5014692;28;20804;-65
2022/06/20 09:19:47;;;;;;;;;;;34.20;34.90;;;31.91;41.25;95563.09;5013721;28;19925;-65
2022/06/20 09:22:38;;;;;;;;;;;34.60;34.30;;;32.25;39.43;95567.31;5007157;28;20011;-65
2022/06/20 09:25:06;;;;;;;;;;;34.90;33.00;;;32.60;39.58;95562.22;5016461;28;19973;-66
2022/06/20 09:27:53;;;;;;;;;;;35.30;32.50;;;32.97;39.05;95562.16;5001231;28;19937;-65
2022/06/20 09:30:48;;;;;;;;;;;35.80;32.80;;;33.36;38.71;95555.91;5019604;28;19921;-65
2022/06/20 09:33:23;;;;;;;;;;;36.20;30.50;;;33.71;37.33;95560.72;4986875;28;20398;-65
2022/06/20 09:36:13;;;;;;;;;;;36.40;30.70;;;33.83;38.80;95552.47;4994600;28;19921;-67
2022/06/20 09:38:43;;;;;;;;;;;36.30;31.60;;;33.81;36.50;95552.03;5017615;28;19917;-64
2022/06/20 09:41:32;;;;;;;;;;;35.80;30.10;;;33.56;36.26;95547.88;5010674;28;19922;-66
2022/06/20 09:44:16;;;;;;;;;;;35.00;30.50;;;33.38;36.86;95550.09;4992890;28;19917;-65
2022/06/20 09:46:58;;;;;;;;;;;34.80;31.80;;;33.11;37.25;95554.41;5016516;28;19925;-65
2022/06/20 09:49:35;;;;;;;;;;;34.20;31.80;;;32.80;37.79;95550.38;5032852;28;19967;-65
2022/06/20 09:52:04;;;;;;;;;;;33.90;32.60;;;32.60;37.96;95562.22;5039230;28;19916;-66
2022/06/20 09:54:59;;;;;;;;;;;33.70;32.80;;;32.52;37.00;95546.78;5037307;28;20015;-66
2022/06/20 09:57:37;;;;;;;;;;;33.90;32.40;;;32.42;38.26;95545.34;5031891;28;19921;-66
2022/06/20 10:00:03;;;;;;;;;;;34.00;33.50;;;32.13;36.74;95557.22;5021373;28;19924;-66
2022/06/20 10:02:48;;;;;;;;;;;33.10;33.40;;;31.89;37.47;95555.28;5031550;28;19925;-66
2022/06/20 10:05:26;;;;;;;;;;;32.80;33.90;;;31.64;38.36;95554.41;5029416;28;19942;-65
2022/06/20 10:07:54;;;;;;;;;;;32.60;34.30;;;31.46;38.51;95558.47;4991474;28;20028;-65
2022/06/20 10:11:05;;;;;;;;;;;32.40;34.80;;;31.30;39.06;95555.56;4994333;28;19927;-66
2022/06/20 10:13:39;;;;;;;;;;;32.40;35.00;;;31.23;38.92;95554.50;5006096;28;20041;-66
2022/06/20 10:16:20;;;;;;;;;;;32.50;35.40;;;31.17;39.40;95556.66;4987803;28;19921;-66
2022/06/20 10:18:58;;;;;;;;;;;32.60;35.50;;;31.14;38.41;95551.06;5016618;28;19928;-66
2022/06/20 10:21:35;;;;;;;;;;;32.60;35.30;;;31.27;38.86;95550.81;5006821;28;19945;-65
2022/06/20 10:24:10;;;;;;;;;;;33.30;33.80;;;31.48;38.35;95545.34;5023106;28;19994;-65
2022/06/20 10:26:54;;;;;;;;;;;33.50;34.00;;;31.89;39.21;95549.84;5012323;28;19932;-66
2022/06/20 10:29:42;;;;;;;;;;;34.30;33.20;;;32.52;38.77;95538.63;5028883;28;19961;-65
2022/06/20 10:32:34;;;;;;;;;;;35.70;32.00;;;33.06;37.75;95532.84;5015048;28;20015;-66
2022/06/20 10:35:15;;;;;;;;;;;36.30;31.40;;;33.79;35.52;95535.22;5002566;28;19924;-66
2022/06/20 10:37:46;;;;;;;;;;;37.00;28.70;;;34.11;35.73;95536.03;5029200;28;20008;-67
2022/06/20 10:40:35;;;;;;;;;;;37.00;29.10;;;34.37;34.66;95528.09;4990955;28;20391;-67
2022/06/20 10:43:14;;;;;;;;;;;36.90;28.80;;;34.41;35.57;95530.13;5029229;28;19917;-67
2022/06/20 10:45:50;;;;;;;;;;;36.10;30.40;;;34.25;34.90;95535.59;5024342;28;19971;-66
2022/06/20 10:48:34;;;;;;;;;;;35.90;30.40;;;34.66;35.27;95534.19;5008144;28;19929;-66
2022/06/20 10:51:25;;;;;;;;;;;37.20;29.10;;;35.32;35.65;95524.25;5016805;28;19925;-66
2022/06/20 10:54:12;;;;;;;;;;;38.30;29.30;;;35.86;34.34;95524.88;4977196;28;20040;-66
2022/06/20 10:56:57;;;;;;;;;;;38.50;27.10;;;36.21;32.99;95529.34;5003383;28;20012;-67
2022/06/20 10:59:31;;;;;;;;;;;38.70;26.80;;;36.47;33.54;95518.44;5018333;28;20394;-67
2022/06/20 11:02:05;;;;;;;;;;;38.40;27.30;;;36.27;33.44;95524.38;5009846;28;19943;-65
2022/06/20 11:04:52;;;;;;;;;;;37.60;28.30;;;35.90;33.60;95523.00;5029822;28;19948;-66
2022/06/20 11:07:37;;;;;;;;;;;37.10;28.80;;;35.45;34.07;95528.41;5030337;28;19928;-67
2022/06/20 11:10:25;;;;;;;;;;;36.30;29.60;;;35.05;33.19;95536.97;5024348;28;20021;-66
2022/06/20 11:13:24;;;;;;;;;;;35.90;29.60;;;35.08;33.46;95531.59;5032876;28;19924;-66
2022/06/20 11:16:11;;;;;;;;;;;36.70;28.80;;;35.67;32.25;95522.19;5022639;28;19921;-66
2022/06/20 11:18:58;;;;;;;;;;;37.70;27.20;;;36.06;31.54;95522.09;5003705;28;19924;-66
2022/06/20 11:21:36;;;;;;;;;;;38.00;26.40;;;36.48;31.46;95520.03;5024088;28;19921;-67
2022/06/20 11:24:11;;;;;;;;;;;38.40;26.10;;;36.95;30.79;95515.97;5017172;28;19917;-67
2022/06/20 11:26:43;;;;;;;;;;;39.00;26.10;;;37.58;30.35;95511.59;5013189;28;20407;-69
2022/06/20 11:29:30;;;;;;;;;;;39.90;24.90;;;37.96;30.25;95510.38;5009362;28;20008;-69
2022/06/20 11:32:22;;;;;;;;;;;39.60;24.30;;;38.42;30.24;95516.25;5026701;28;19924;-69
2022/06/20 11:35:06;;;;;;;;;;;40.30;24.50;;;38.70;29.08;95512.91;5022740;28;19955;-69
2022/06/20 11:37:45;;;;;;;;;;;40.30;24.30;;;38.79;29.42;95507.88;5016309;28;19928;-69
2022/06/20 11:40:11;;;;;;;;;;;40.70;24.30;;;39.16;28.97;95515.91;5010072;28;19940;-68
2022/06/20 11:42:55;;;;;;;;;;;41.20;23.60;;;39.37;27.91;95497.88;5018353;28;19917;-68
2022/06/20 11:45:23;;;;;;;;;;;40.90;22.90;;;39.57;28.46;95499.13;5014430;28;20017;-68
2022/06/20 11:47:58;;;;;;;;;;;41.00;23.40;;;39.90;28.09;95500.75;5015173;28;20008;-68
2022/06/20 11:51:22;;;;;;;;;;;41.80;22.70;;;40.31;27.28;95500.34;5011915;28;19925;-66
2022/06/20 11:54:25;;;;;;;;;;;42.20;22.90;;;40.70;28.03;95490.03;4977533;28;19928;-66
2022/06/20 11:57:26;;;;;;;;;;;42.80;22.40;;;40.95;27.62;95486.44;5026917;28;19916;-66
2022/06/20 12:00:01;;;;;;;;;;;42.80;22.60;;;41.34;27.44;95488.25;5000550;28;19920;-66
2022/06/20 12:03:00;;;;;;;;;;;43.50;21.70;;;41.69;26.74;95492.81;4999080;28;20288;-67
2022/06/20 12:05:34;;;;;;;;;;;43.90;20.80;;;42.00;25.66;95490.97;5031923;28;19917;-66
2022/06/20 12:08:00;;;;;;;;;;;43.80;20.70;;;41.78;26.68;95485.63;5008712;28;20384;-67
2022/06/20 12:10:38;;;;;;;;;;;42.50;21.50;;;41.03;27.02;95495.47;5019890;28;19916;-67